OEDF/DMM METAR and TAF weather

Enter ICAO airport designator
Station Type Date Time Source
OEDF METAR 2022/06/29 00:00 UTC NOAA

OEDF 290000Z 30012KT CAVOK 31/10 Q0998 NOSIG


Station Type Date Time Source
OEDF Decoded METAR 2022/06/29 00:00 UTC NOAA

Dammam-King Fahd International Airport, Saudi Arabia (OEDF) 26-28N 049-47E
Jun 28, 2022 - 08:00 PM EDT / 2022.06.29 0000 UTC
Wind: from the WNW (300 degrees) at 14 MPH (12 KT):0
Visibility: greater than 7 mile(s):0
Temperature: 87 F (31 C)
Dew Point: 50 F (10 C)
Relative Humidity: 27%
Pressure (altimeter): 29.47 in. Hg (0998 hPa)
ob: OEDF 290000Z 30012KT CAVOK 31/10 Q0998 NOSIG
cycle: 0

Station Type Date Time Source
OEDF TAF 2022/06/28 18:33 UTC NOAA

TAF TAF OEDF 281600Z 2818/2924 30008KT CAVOK
TEMPO 2900/2904 4000 DU
BECMG 2904/2906 34012G26KT
TEMPO 2908/2914 4000 BLDU

Example: see airport list